Hovedside
METAR-TAF:

METAR-TAF

Lufthavner :

Ouagadougou, Burkina Faso

Ouagadougou lufthavn

breddegrad: 12-21N, lengdegrad: 001-31W, høyde over havet: 316 m

Gjeldene værobservasjon

Denne rapporten ble laget for 35 minutter siden, klokken 21:00 UTC
Vind 3 kt fra Øst
Temperatur 24°C
Luftfuktighet 18%
Trykk 1014 hPa
Sikt: 8000 m

METAR: DFFD 182100Z 08003KT 8000 NSC 24/M02 Q1014 NOSIG

Tid: 21:35 (21:35 UTC)

Varsel

Denne rapporten ble laget for 4 timer og 35 minutter siden, klokken 17:00 UTC
Varsel gyldig fra 18. klokken 18 UTC til 19. klokken 24 UTC
Vind 8 kt fra Øst
Sikt: 8000 m
Midlertidig
fra 18. klokken 18 UTC til 18. klokken 20 UTC
Sikt: 4000 m
mye støv
Midlertidig
fra 19. klokken 06 UTC til 19. klokken 10 UTC
Sikt: 4000 m
mye støv
Midlertidig
fra 19. klokken 17 UTC til 19. klokken 20 UTC
Sikt: 4000 m
mye støv

TAF: DFFD 181700Z 1818/1924 08008KT 8000 NSC TEMPO 1818/1820 4000 DU TEMPO 1906/1910 4000 DU TEMPO 1917/1920 4000 DU

Værobservasjoner og værvarsel for over 4000 flyplasser (METAR- og TAF-rapporter).

Tilgjengelige stasjoner er representert av de røde og gule prikkene på kartet.

Hold musepekeren over prikken for å se navnet på stasjonen.

Klikk så for å se værobservasjoner og -varsler.

For å forandre kartet kan du klikke på den grønne knappen med svart kryss for å zoome inn, på den grønne knappen med strek for å zoome ut, eller på de grønne pilene for å se tilstøtende kart.


METAR-TAF: